createdAt,value
2023-03-04T00:01:01.321Z,7.88
2023-03-04T00:03:29.097Z,8.27
2023-03-04T00:05:56.817Z,9.50
2023-03-04T00:08:24.480Z,11.00
2023-03-04T00:10:52.164Z,12.15
2023-03-04T00:13:22.193Z,14.32
2023-03-04T00:15:49.885Z,16.10
2023-03-04T00:18:17.524Z,18.55
2023-03-04T00:20:45.175Z,20.73
2023-03-04T00:23:12.833Z,23.35
2023-03-04T00:25:42.576Z,26.00
2023-03-04T00:28:11.217Z,29.55
2023-03-04T00:30:41.166Z,32.75
2023-03-04T00:33:08.826Z,34.78
2023-03-04T00:35:36.512Z,39.60
2023-03-04T00:38:04.265Z,42.70
2023-03-04T00:40:31.932Z,49.65
2023-03-04T00:42:59.577Z,52.97
2023-03-04T00:45:27.294Z,57.53
2023-03-04T00:47:56.318Z,62.67
2023-03-04T00:50:23.980Z,68.40
2023-03-04T00:52:51.642Z,75.88
2023-03-04T00:55:19.476Z,81.13
2023-03-04T00:57:47.165Z,84.90
2023-03-04T01:00:16.937Z,93.25
2023-03-04T01:02:44.641Z,100.85
2023-03-04T01:05:13.668Z,109.75
2023-03-04T01:07:41.411Z,113.97
2023-03-04T01:10:10.100Z,119.05
2023-03-04T01:12:37.751Z,125.20
2023-03-04T01:15:05.983Z,133.68
2023-03-04T01:17:33.710Z,134.95
2023-03-04T01:20:01.453Z,144.13
2023-03-04T01:22:30.480Z,151.07
2023-03-04T01:24:58.162Z,158.13
2023-03-04T01:27:26.988Z,170.82
2023-03-04T01:29:54.648Z,170.48
2023-03-04T01:32:23.641Z,179.63
2023-03-04T01:34:51.364Z,191.60
2023-03-04T01:37:19.026Z,195.95
2023-03-04T01:39:48.850Z,205.50
2023-03-04T01:42:18.750Z,216.63
2023-03-04T01:44:46.406Z,217.43
2023-03-04T01:47:14.079Z,232.32
2023-03-04T01:49:41.937Z,233.10
2023-03-04T01:52:11.631Z,244.30
2023-03-04T01:54:39.302Z,253.00
2023-03-04T01:57:16.323Z,249.57
2023-03-04T01:59:44.185Z,253.80
2023-03-04T02:02:12.065Z,262.45
2023-03-04T02:04:39.783Z,270.00
2023-03-04T02:07:07.591Z,273.48
2023-03-04T02:09:35.765Z,286.13
2023-03-04T02:12:03.518Z,284.77
2023-03-04T02:14:32.682Z,293.98
2023-03-04T02:17:00.383Z,296.48
2023-03-04T02:19:35.154Z,306.92
2023-03-04T02:22:02.875Z,312.23
2023-03-04T02:24:33.948Z,319.83
2023-03-04T02:27:02.987Z,319.90
2023-03-04T02:29:30.749Z,322.70
2023-03-04T02:31:58.487Z,321.55
2023-03-04T02:34:26.830Z,337.65
2023-03-04T02:36:55.036Z,339.75
2023-03-04T02:39:24.221Z,353.88
2023-03-04T02:41:53.242Z,344.50
2023-03-04T02:44:24.434Z,355.17
2023-03-04T02:46:53.375Z,365.92
2023-03-04T02:49:21.421Z,360.85
2023-03-04T02:51:52.129Z,369.48
2023-03-04T02:54:21.075Z,387.05
2023-03-04T02:56:48.934Z,367.63
2023-03-04T02:59:17.355Z,385.27
2023-03-04T03:01:46.634Z,388.98
2023-03-04T03:04:14.413Z,398.88
2023-03-04T03:06:43.075Z,396.83
2023-03-04T03:09:11.681Z,390.98
2023-03-04T03:11:40.721Z,406.70
2023-03-04T03:14:09.418Z,405.50
2023-03-04T03:16:37.173Z,406.45
2023-03-04T03:19:07.150Z,410.30
2023-03-04T03:21:36.500Z,423.25
2023-03-04T03:24:04.289Z,423.75
2023-03-04T03:26:32.085Z,423.23
2023-03-04T03:28:59.747Z,437.25
2023-03-04T03:31:29.097Z,447.30
2023-03-04T03:33:56.811Z,441.92
2023-03-04T03:36:25.897Z,440.45
2023-03-04T03:38:53.795Z,449.77
2023-03-04T03:41:21.496Z,457.05
2023-03-04T03:43:49.178Z,460.58
2023-03-04T03:46:16.845Z,456.08
2023-03-04T03:48:44.528Z,463.88
2023-03-04T03:51:12.207Z,466.52
2023-03-04T03:53:41.203Z,468.63
2023-03-04T03:56:09.051Z,467.50
2023-03-04T03:58:36.713Z,470.27
2023-03-04T04:01:04.393Z,472.42
2023-03-04T04:03:32.044Z,472.52
2023-03-04T04:05:59.694Z,474.08
2023-03-04T04:08:27.357Z,474.83
2023-03-04T04:10:56.349Z,471.23
2023-03-04T04:13:24.002Z,476.17
2023-03-04T04:15:54.356Z,473.83
2023-03-04T04:18:22.071Z,480.08
2023-03-04T04:20:49.855Z,475.48
2023-03-04T04:23:17.490Z,479.42
2023-03-04T04:25:45.180Z,477.90
2023-03-04T04:28:14.148Z,476.98
2023-03-04T04:30:41.904Z,474.08
2023-03-04T04:33:10.236Z,484.52
2023-03-04T04:35:38.782Z,483.90
2023-03-04T04:38:06.522Z,487.15
2023-03-04T04:40:34.158Z,476.60
2023-03-04T04:43:01.820Z,478.98
2023-03-04T04:45:30.787Z,480.00
2023-03-04T04:47:58.450Z,479.00
2023-03-04T04:50:26.363Z,478.80
2023-03-04T04:52:54.051Z,480.80
2023-03-04T04:55:21.722Z,486.45
2023-03-04T04:57:49.391Z,480.13
2023-03-04T05:00:18.917Z,481.05
2023-03-04T05:02:47.911Z,469.70
2023-03-04T05:05:15.581Z,479.92
2023-03-04T05:07:43.350Z,470.30
2023-03-04T05:10:11.958Z,472.65
2023-03-04T05:12:39.612Z,460.42
2023-03-04T05:15:08.168Z,465.70
2023-03-04T05:17:35.818Z,458.88
2023-03-04T05:20:07.070Z,467.42
2023-03-04T05:22:34.815Z,459.90
2023-03-04T05:25:03.061Z,460.40
2023-03-04T05:27:30.720Z,453.85
2023-03-04T05:30:00.609Z,447.20
2023-03-04T05:32:28.404Z,449.00
2023-03-04T05:34:56.116Z,447.35
2023-03-04T05:37:25.133Z,445.77
2023-03-04T05:39:52.778Z,443.10
2023-03-04T05:42:20.472Z,431.25
2023-03-04T05:44:48.111Z,432.77
2023-03-04T05:47:15.878Z,437.05
2023-03-04T05:49:44.518Z,426.98
2023-03-04T05:52:12.349Z,419.63
2023-03-04T05:54:41.316Z,417.25
2023-03-04T05:57:09.009Z,416.35
2023-03-04T05:59:36.684Z,422.35
2023-03-04T06:02:04.422Z,408.83
2023-03-04T06:04:32.263Z,402.70
2023-03-04T06:06:59.948Z,405.23
2023-03-04T06:09:27.644Z,399.13
2023-03-04T06:11:56.796Z,392.48
2023-03-04T06:14:24.520Z,399.25
2023-03-04T06:16:52.243Z,394.45
2023-03-04T06:19:20.068Z,389.15
2023-03-04T06:21:47.743Z,381.42
2023-03-04T06:24:15.480Z,391.35
2023-03-04T06:26:43.259Z,378.40
2023-03-04T06:29:12.475Z,384.13
2023-03-04T06:31:41.705Z,374.95
2023-03-04T06:34:09.442Z,375.27
2023-03-04T06:36:37.306Z,366.15
2023-03-04T06:39:05.030Z,361.70
2023-03-04T06:41:32.915Z,358.02
2023-03-04T06:44:00.574Z,358.42
2023-03-04T06:46:30.621Z,352.40
2023-03-04T06:48:58.420Z,342.50
2023-03-04T06:51:26.085Z,343.33
2023-03-04T06:53:53.773Z,336.10
2023-03-04T06:56:21.438Z,342.38
2023-03-04T06:58:49.097Z,322.45
2023-03-04T07:01:17.610Z,328.85
2023-03-04T07:03:46.821Z,320.92
2023-03-04T07:06:15.375Z,330.45
2023-03-04T07:08:43.136Z,312.20
2023-03-04T07:11:10.821Z,309.58
2023-03-04T07:13:39.002Z,310.23
2023-03-04T07:16:07.301Z,310.77
2023-03-04T07:18:35.045Z,313.90
2023-03-04T07:21:04.241Z,309.27
2023-03-04T07:23:31.885Z,298.77
2023-03-04T07:25:59.820Z,286.80
2023-03-04T07:28:27.649Z,288.05
2023-03-04T07:30:55.325Z,293.92
2023-03-04T07:33:22.983Z,288.13
2023-03-04T07:35:50.690Z,284.70
2023-03-04T07:38:19.727Z,281.88
2023-03-04T07:40:47.420Z,278.92
2023-03-04T07:43:15.102Z,269.67
2023-03-04T07:45:42.900Z,263.75
2023-03-04T07:48:10.612Z,272.00
2023-03-04T07:50:38.268Z,273.17
2023-03-04T07:53:05.953Z,263.33
2023-03-04T07:55:34.938Z,264.38
2023-03-04T07:58:03.144Z,256.05
2023-03-04T08:00:30.851Z,263.58
2023-03-04T08:02:58.584Z,255.32
2023-03-04T08:05:26.266Z,246.98
2023-03-04T08:07:57.703Z,238.85
2023-03-04T08:10:25.414Z,240.20
2023-03-04T08:12:54.366Z,232.05
2023-03-04T08:15:22.048Z,238.93
2023-03-04T08:17:49.724Z,234.30
2023-03-04T08:20:17.559Z,230.15
2023-03-04T08:22:45.248Z,222.32
2023-03-04T08:25:12.905Z,220.93
2023-03-04T08:27:40.581Z,226.77
2023-03-04T08:30:11.173Z,220.13
2023-03-04T08:32:38.974Z,204.70
2023-03-04T08:35:06.984Z,210.52
2023-03-04T08:37:34.659Z,204.20
2023-03-04T08:40:02.370Z,210.98
2023-03-04T08:42:30.060Z,211.48
2023-03-04T08:44:57.725Z,198.13
2023-03-04T08:47:26.725Z,202.02
2023-03-04T08:49:54.372Z,194.02
2023-03-04T08:52:22.042Z,190.43
2023-03-04T08:54:50.763Z,180.55
2023-03-04T08:57:18.462Z,187.02
2023-03-04T08:59:46.151Z,188.40
2023-03-04T09:02:13.835Z,173.50
2023-03-04T09:04:42.902Z,171.25
2023-03-04T09:07:11.180Z,174.15
2023-03-04T09:09:38.862Z,171.02
2023-03-04T09:12:06.946Z,170.05
2023-03-04T09:14:35.787Z,158.15
2023-03-04T09:17:03.530Z,162.20
2023-03-04T09:19:31.484Z,154.02
2023-03-04T09:22:00.468Z,153.10
2023-03-04T09:24:28.152Z,151.32
2023-03-04T09:26:55.973Z,138.32
2023-03-04T09:29:23.739Z,138.27
2023-03-04T09:31:51.484Z,127.22
2023-03-04T09:34:19.165Z,117.70
2023-03-04T09:36:46.863Z,109.80
2023-03-04T09:39:15.882Z,108.15
2023-03-04T09:41:44.358Z,105.32
2023-03-04T09:44:16.697Z,98.07
2023-03-04T09:46:44.653Z,74.25
2023-03-04T09:49:12.860Z,84.13
2023-03-04T09:51:48.051Z,79.70
2023-03-04T09:54:19.730Z,75.65
2023-03-04T09:56:47.442Z,68.65
2023-03-04T09:59:18.352Z,58.72
2023-03-04T10:01:48.855Z,46.75
2023-03-04T10:04:18.860Z,35.17
2023-03-04T10:06:51.497Z,31.45
2023-03-04T10:09:21.291Z,26.23
2023-03-04T10:11:50.295Z,23.38
2023-03-04T10:14:28.119Z,20.67
2023-03-04T10:16:58.252Z,18.17
2023-03-04T10:19:31.759Z,15.35
2023-03-04T10:21:59.525Z,14.65
2023-03-04T10:24:29.799Z,12.55
2023-03-04T10:27:01.489Z,12.68
2023-03-04T10:29:29.760Z,11.85
2023-03-04T10:31:57.508Z,10.48
2023-03-04T10:34:25.285Z,9.05
2023-03-04T10:36:57.779Z,10.77
2023-03-04T10:39:27.437Z,10.73
2023-03-04T10:41:58.464Z,11.10
2023-03-04T10:44:26.310Z,9.50
2023-03-04T10:46:55.699Z,10.32
2023-03-04T10:49:24.742Z,8.93
2023-03-04T10:51:55.092Z,8.68
2023-03-04T10:54:27.395Z,8.50
2023-03-04T10:56:58.961Z,7.82
2023-03-04T10:59:40.485Z,7.30
2023-03-04T11:02:25.094Z,6.80
2023-03-04T11:04:55.020Z,6.13
2023-03-04T11:07:23.467Z,6.15
2023-03-04T11:09:51.127Z,5.50
2023-03-04T11:12:21.241Z,6.07
2023-03-04T11:14:49.726Z,5.60
2023-03-04T11:17:23.705Z,5.20
2023-03-04T11:19:54.497Z,5.20
2023-03-04T11:22:22.855Z,4.97
2023-03-04T11:25:02.475Z,4.57
2023-03-04T11:27:39.633Z,4.95
2023-03-04T11:30:27.698Z,4.38
2023-03-04T11:32:57.698Z,5.15
2023-03-04T11:35:26.710Z,4.90
2023-03-04T11:37:58.403Z,3.92
2023-03-04T11:40:29.975Z,6.43
2023-03-04T11:43:02.638Z,3.83
2023-03-04T11:45:42.119Z,4.05
2023-03-04T11:48:10.747Z,3.58
2023-03-04T11:50:45.546Z,3.40
2023-03-04T11:53:47.136Z,3.67
2023-03-04T11:56:28.246Z,3.53
2023-03-04T11:59:06.409Z,3.20
2023-03-04T12:01:37.365Z,3.15
2023-03-04T12:04:27.971Z,3.75
2023-03-04T12:07:02.773Z,3.85
2023-03-04T12:09:41.528Z,3.22
2023-03-04T12:12:22.837Z,3.20
2023-03-04T12:14:53.083Z,3.97
2023-03-04T12:17:36.828Z,3.00
2023-03-04T12:20:25.013Z,3.50
2023-03-04T12:22:53.600Z,3.13
2023-03-04T12:25:35.764Z,3.85
2023-03-04T12:28:11.147Z,3.75
2023-03-04T12:30:48.302Z,3.55
2023-03-04T12:33:21.668Z,3.55
2023-03-04T12:35:54.246Z,3.50
2023-03-04T12:38:33.043Z,3.70
2023-03-04T12:41:05.319Z,3.80
2023-03-04T12:43:44.830Z,3.45
2023-03-04T12:46:19.638Z,3.40
2023-03-04T12:48:50.176Z,3.47
2023-03-04T12:51:27.056Z,3.67
2023-03-04T12:53:59.403Z,3.28
2023-03-04T12:56:29.381Z,3.33
2023-03-04T12:58:57.074Z,2.65
2023-03-04T13:01:27.705Z,3.05
2023-03-04T13:03:59.616Z,3.30
2023-03-04T13:06:32.584Z,2.80
2023-03-04T13:09:03.149Z,3.15
2023-03-04T13:11:47.282Z,3.60
2023-03-04T13:14:34.430Z,3.00
2023-03-04T13:17:19.343Z,2.65
2023-03-04T13:19:52.722Z,2.88
2023-03-04T13:22:50.828Z,2.90
2023-03-04T13:25:38.761Z,3.83
2023-03-04T13:28:21.525Z,3.25
2023-03-04T13:31:16.856Z,3.60
2023-03-04T13:33:54.175Z,3.33
2023-03-04T13:36:55.681Z,3.67
2023-03-04T13:39:26.403Z,3.38
2023-03-04T13:41:54.619Z,2.95
2023-03-04T13:44:59.236Z,3.38
2023-03-04T13:47:46.000Z,3.63
2023-03-04T13:50:37.443Z,3.45
2023-03-04T13:53:34.393Z,3.72
2023-03-04T13:56:07.672Z,3.38
2023-03-04T13:58:35.543Z,3.10
2023-03-04T14:01:03.380Z,3.35
2023-03-04T14:03:32.093Z,4.55
2023-03-04T14:06:17.903Z,3.17
2023-03-04T14:08:45.741Z,3.35
2023-03-04T14:11:14.981Z,4.20
2023-03-04T14:13:43.003Z,4.35
2023-03-04T14:16:10.740Z,3.65
2023-03-04T14:18:38.527Z,3.60
2023-03-04T14:21:06.900Z,3.25
2023-03-04T14:23:37.067Z,4.07
2023-03-04T14:26:06.420Z,4.20
2023-03-04T14:28:34.104Z,6.72
2023-03-04T14:31:01.799Z,3.58
2023-03-04T14:33:30.319Z,3.22
2023-03-04T14:35:59.477Z,3.63
2023-03-04T14:38:29.640Z,3.28
2023-03-04T14:40:59.869Z,3.85
2023-03-04T14:43:27.638Z,3.50
2023-03-04T14:45:56.528Z,2.83
2023-03-04T14:48:26.248Z,3.17
2023-03-04T14:50:54.742Z,3.15
2023-03-04T14:53:23.409Z,3.60
2023-03-04T14:55:59.474Z,3.22
2023-03-04T14:58:28.275Z,3.55
2023-03-04T15:01:07.309Z,3.45
2023-03-04T15:03:35.145Z,3.47
2023-03-04T15:06:16.084Z,3.08
2023-03-04T15:08:43.830Z,2.85
2023-03-04T15:11:22.477Z,3.20
2023-03-04T15:13:51.161Z,2.90
2023-03-04T15:16:19.801Z,3.13
2023-03-04T15:18:58.545Z,3.17
2023-03-04T15:21:33.947Z,3.60
2023-03-04T15:24:03.273Z,3.08
2023-03-04T15:26:32.523Z,2.88
2023-03-04T15:29:00.198Z,3.72
2023-03-04T15:31:28.023Z,2.83
2023-03-04T15:33:55.724Z,3.80
2023-03-04T15:36:23.867Z,2.92
2023-03-04T15:38:52.394Z,3.20
2023-03-04T15:41:22.704Z,2.97
2023-03-04T15:43:51.877Z,3.10
2023-03-04T15:46:19.738Z,3.60
2023-03-04T15:48:47.553Z,3.60
2023-03-04T15:51:16.051Z,3.70
2023-03-04T15:53:45.728Z,3.92
2023-03-04T15:56:15.062Z,3.10
2023-03-04T15:58:43.109Z,3.47
2023-03-04T16:01:14.359Z,3.55
2023-03-04T16:03:42.367Z,3.58
2023-03-04T16:06:11.163Z,3.80
2023-03-04T16:08:38.875Z,3.72
2023-03-04T16:11:06.779Z,3.20
2023-03-04T16:13:34.461Z,3.40
2023-03-04T16:16:02.204Z,3.65
2023-03-04T16:18:31.268Z,3.50
2023-03-04T16:20:59.002Z,3.30
2023-03-04T16:23:26.727Z,3.20
2023-03-04T16:25:56.038Z,3.53
2023-03-04T16:28:23.750Z,3.05
2023-03-04T16:30:51.485Z,3.15
2023-03-04T16:33:19.221Z,3.75
2023-03-04T16:35:48.383Z,3.35
2023-03-04T16:38:20.763Z,3.17
2023-03-04T16:40:49.488Z,2.97
2023-03-04T16:43:17.174Z,3.47
2023-03-04T16:45:44.911Z,3.25
2023-03-04T16:48:12.589Z,2.85
2023-03-04T16:50:40.428Z,2.72
2023-03-04T16:53:18.121Z,3.20
2023-03-04T16:55:45.820Z,3.00
2023-03-04T16:58:13.497Z,2.75
2023-03-04T17:00:41.190Z,3.00
2023-03-04T17:03:11.007Z,3.08
2023-03-04T17:05:38.779Z,2.42
2023-03-04T17:08:06.750Z,2.70
2023-03-04T17:10:35.732Z,2.63
2023-03-04T17:13:03.425Z,2.30
2023-03-04T17:15:31.109Z,2.80
2023-03-04T17:17:58.785Z,2.85
2023-03-04T17:20:26.449Z,2.47
2023-03-04T17:22:54.197Z,2.55
2023-03-04T17:25:21.867Z,2.60
2023-03-04T17:27:51.170Z,2.45
2023-03-04T17:30:18.893Z,2.60
2023-03-04T17:32:46.566Z,2.20
2023-03-04T17:35:14.249Z,2.25
2023-03-04T17:37:41.925Z,2.63
2023-03-04T17:40:13.936Z,1.92
2023-03-04T17:42:42.006Z,2.25
2023-03-04T17:45:11.868Z,2.78
2023-03-04T17:47:39.547Z,2.40
2023-03-04T17:50:08.240Z,2.33
2023-03-04T17:52:35.930Z,1.98
2023-03-04T17:55:03.658Z,2.20
2023-03-04T17:57:31.318Z,2.53
2023-03-04T17:59:59.046Z,1.80
2023-03-04T18:02:28.107Z,2.05
2023-03-04T18:04:55.814Z,1.70
2023-03-04T18:07:23.518Z,2.17
2023-03-04T18:09:51.474Z,1.83
2023-03-04T18:12:19.151Z,2.40
2023-03-04T18:14:46.833Z,1.98
2023-03-04T18:17:14.525Z,1.92
2023-03-04T18:19:43.524Z,2.42
2023-03-04T18:22:11.362Z,2.00
2023-03-04T18:24:41.146Z,2.08
2023-03-04T18:27:08.853Z,2.05
2023-03-04T18:29:36.778Z,1.55
2023-03-04T18:32:04.738Z,1.58
2023-03-04T18:34:32.465Z,1.80
2023-03-04T18:37:01.473Z,1.65
2023-03-04T18:39:29.194Z,2.00
2023-03-04T18:41:56.849Z,1.83
2023-03-04T18:44:24.503Z,1.85
2023-03-04T18:46:53.074Z,1.52
2023-03-04T18:49:20.746Z,1.58
2023-03-04T18:51:48.423Z,1.77
2023-03-04T18:54:18.238Z,1.58
2023-03-04T18:56:46.839Z,1.50
2023-03-04T18:59:15.781Z,1.90
2023-03-04T19:01:43.481Z,1.65
2023-03-04T19:04:11.187Z,1.90
2023-03-04T19:06:38.894Z,1.83
2023-03-04T19:09:06.739Z,1.60
2023-03-04T19:11:35.823Z,1.75
2023-03-04T19:14:03.676Z,1.80
2023-03-04T19:16:31.423Z,1.50
2023-03-04T19:18:59.070Z,1.77
2023-03-04T19:21:26.789Z,1.40
2023-03-04T19:23:54.458Z,1.70
2023-03-04T19:26:22.132Z,1.90
2023-03-04T19:28:51.173Z,1.30
2023-03-04T19:31:18.836Z,1.55
2023-03-04T19:33:46.718Z,1.52
2023-03-04T19:36:14.414Z,1.67
2023-03-04T19:38:43.526Z,1.73
2023-03-04T19:41:11.749Z,1.35
2023-03-04T19:43:39.564Z,1.63
2023-03-04T19:46:08.957Z,1.73
2023-03-04T19:48:37.258Z,1.45
2023-03-04T19:51:05.265Z,1.50
2023-03-04T19:53:34.740Z,1.65
2023-03-04T19:56:02.664Z,1.35
2023-03-04T19:58:30.346Z,1.55
2023-03-04T20:00:58.008Z,1.60
2023-03-04T20:03:27.064Z,1.80
2023-03-04T20:06:03.117Z,1.60
2023-03-04T20:08:30.801Z,1.40
2023-03-04T20:10:58.467Z,1.00
2023-03-04T20:13:26.145Z,1.38
2023-03-04T20:15:53.963Z,1.45
2023-03-04T20:18:21.680Z,1.65
2023-03-04T20:20:51.772Z,1.73
2023-03-04T20:23:21.601Z,1.60
2023-03-04T20:25:49.282Z,1.63
2023-03-04T20:28:16.996Z,1.63
2023-03-04T20:30:44.700Z,1.60
2023-03-04T20:33:12.387Z,1.33
2023-03-04T20:35:40.848Z,1.30
2023-03-04T20:38:09.911Z,1.42
2023-03-04T20:40:37.833Z,1.38
2023-03-04T20:43:05.659Z,1.38
2023-03-04T20:45:33.467Z,1.30
2023-03-04T20:48:01.148Z,1.63
2023-03-04T20:50:28.923Z,1.30
2023-03-04T20:52:56.598Z,1.30
2023-03-04T20:55:27.869Z,1.40
2023-03-04T20:57:55.572Z,1.60
2023-03-04T21:00:23.342Z,1.40
2023-03-04T21:02:51.059Z,1.23
2023-03-04T21:05:18.902Z,1.27
2023-03-04T21:07:46.589Z,1.50
2023-03-04T21:10:14.264Z,1.45
2023-03-04T21:12:43.270Z,1.33
2023-03-04T21:15:11.371Z,1.17
2023-03-04T21:17:39.054Z,1.38
2023-03-04T21:20:07.828Z,1.30
2023-03-04T21:22:35.509Z,1.38
2023-03-04T21:25:03.190Z,1.05
2023-03-04T21:27:31.181Z,1.20
2023-03-04T21:30:00.189Z,1.30
2023-03-04T21:32:28.682Z,1.27
2023-03-04T21:34:56.369Z,1.35
2023-03-04T21:37:24.677Z,1.15
2023-03-04T21:39:52.565Z,1.30
2023-03-04T21:42:20.281Z,1.38
2023-03-04T21:44:50.841Z,1.38
2023-03-04T21:47:20.680Z,1.27
2023-03-04T21:49:48.362Z,1.30
2023-03-04T21:52:16.064Z,1.20
2023-03-04T21:54:43.840Z,1.33
2023-03-04T21:57:11.566Z,1.35
2023-03-04T21:59:39.354Z,1.17
2023-03-04T22:02:07.850Z,1.40
2023-03-04T22:04:36.878Z,1.40
2023-03-04T22:07:04.595Z,1.45
2023-03-04T22:09:32.643Z,1.40
2023-03-04T22:12:00.283Z,1.00
2023-03-04T22:14:29.405Z,1.45
2023-03-04T22:16:57.197Z,1.08
2023-03-04T22:19:25.076Z,1.38
2023-03-04T22:21:54.183Z,1.15
2023-03-04T22:24:22.012Z,1.10
2023-03-04T22:26:49.709Z,1.17
2023-03-04T22:29:17.384Z,1.30
2023-03-04T22:31:45.722Z,1.10
2023-03-04T22:34:14.801Z,1.17
2023-03-04T22:36:43.512Z,1.30
2023-03-04T22:39:13.509Z,1.10
2023-03-04T22:41:41.238Z,1.30
2023-03-04T22:44:08.901Z,1.00
2023-03-04T22:46:37.882Z,1.02
2023-03-04T22:49:09.304Z,1.20
2023-03-04T22:51:37.021Z,1.10
2023-03-04T22:54:04.906Z,1.38
2023-03-04T22:56:33.918Z,1.10
2023-03-04T22:59:01.581Z,1.30
2023-03-04T23:01:29.319Z,1.13
2023-03-04T23:03:57.002Z,1.10
2023-03-04T23:06:25.803Z,1.58
2023-03-04T23:08:53.554Z,1.00
2023-03-04T23:11:22.654Z,1.13
2023-03-04T23:13:51.752Z,1.15
2023-03-04T23:16:19.628Z,1.13
2023-03-04T23:18:47.851Z,1.20
2023-03-04T23:21:16.484Z,1.20
2023-03-04T23:23:44.614Z,1.10
2023-03-04T23:26:15.822Z,1.10
2023-03-04T23:28:43.520Z,1.00
2023-03-04T23:31:14.578Z,1.15
2023-03-04T23:33:43.110Z,1.00
2023-03-04T23:36:14.215Z,0.93
2023-03-04T23:38:43.020Z,0.98
2023-03-04T23:41:11.618Z,1.10
2023-03-04T23:43:39.297Z,0.90
2023-03-04T23:46:09.000Z,1.10
2023-03-04T23:48:38.079Z,1.15
2023-03-04T23:51:06.201Z,1.30
2023-03-04T23:53:34.356Z,1.00
2023-03-04T23:56:02.088Z,0.90
2023-03-04T23:58:29.773Z,1.00
